sensor_id;sensor_type;location;lat;lon;timestamp;P1;durP1;ratioP1;P2;durP2;ratioP2
63499;SDS011;49654;51.142;14.924;2023-03-09T00:00:46;24.67;;;18.30;;
63499;SDS011;49654;51.142;14.924;2023-03-09T00:03:13;26.60;;;19.87;;
63499;SDS011;49654;51.142;14.924;2023-03-09T00:05:42;28.70;;;20.83;;
63499;SDS011;49654;51.142;14.924;2023-03-09T00:08:09;31.30;;;20.67;;
63499;SDS011;49654;51.142;14.924;2023-03-09T00:10:38;28.10;;;20.53;;
63499;SDS011;49654;51.142;14.924;2023-03-09T00:13:06;28.07;;;20.50;;
63499;SDS011;49654;51.142;14.924;2023-03-09T00:15:33;26.30;;;20.90;;
63499;SDS011;49654;51.142;14.924;2023-03-09T00:18:01;27.63;;;21.13;;
63499;SDS011;49654;51.142;14.924;2023-03-09T00:20:28;35.57;;;25.27;;
63499;SDS011;49654;51.142;14.924;2023-03-09T00:22:55;44.77;;;28.97;;
63499;SDS011;49654;51.142;14.924;2023-03-09T00:25:22;53.67;;;34.03;;
63499;SDS011;49654;51.142;14.924;2023-03-09T00:27:50;52.87;;;34.97;;
63499;SDS011;49654;51.142;14.924;2023-03-09T00:30:18;52.20;;;33.70;;
63499;SDS011;49654;51.142;14.924;2023-03-09T00:32:46;48.45;;;33.13;;
63499;SDS011;49654;51.142;14.924;2023-03-09T00:35:14;53.13;;;35.10;;
63499;SDS011;49654;51.142;14.924;2023-03-09T00:37:41;53.47;;;34.13;;
63499;SDS011;49654;51.142;14.924;2023-03-09T00:40:09;53.27;;;33.63;;
63499;SDS011;49654;51.142;14.924;2023-03-09T00:42:37;63.47;;;39.63;;
63499;SDS011;49654;51.142;14.924;2023-03-09T00:45:04;68.57;;;40.47;;
63499;SDS011;49654;51.142;14.924;2023-03-09T00:47:32;65.10;;;40.50;;
63499;SDS011;49654;51.142;14.924;2023-03-09T00:49:59;69.87;;;40.90;;
63499;SDS011;49654;51.142;14.924;2023-03-09T00:52:28;72.47;;;42.93;;
63499;SDS011;49654;51.142;14.924;2023-03-09T00:54:55;75.20;;;42.87;;
63499;SDS011;49654;51.142;14.924;2023-03-09T00:57:22;75.75;;;42.85;;
63499;SDS011;49654;51.142;14.924;2023-03-09T00:59:49;71.00;;;41.03;;
63499;SDS011;49654;51.142;14.924;2023-03-09T01:02:17;77.77;;;42.93;;
63499;SDS011;49654;51.142;14.924;2023-03-09T01:04:44;69.70;;;40.20;;
63499;SDS011;49654;51.142;14.924;2023-03-09T01:07:12;74.50;;;40.87;;
63499;SDS011;49654;51.142;14.924;2023-03-09T01:09:40;73.20;;;39.13;;
63499;SDS011;49654;51.142;14.924;2023-03-09T01:12:08;72.73;;;39.70;;
63499;SDS011;49654;51.142;14.924;2023-03-09T01:14:35;67.40;;;37.97;;
63499;SDS011;49654;51.142;14.924;2023-03-09T01:17:02;63.97;;;36.73;;
63499;SDS011;49654;51.142;14.924;2023-03-09T01:19:29;65.50;;;36.73;;
63499;SDS011;49654;51.142;14.924;2023-03-09T01:21:56;63.33;;;35.10;;
63499;SDS011;49654;51.142;14.924;2023-03-09T01:24:24;63.60;;;35.27;;
63499;SDS011;49654;51.142;14.924;2023-03-09T01:26:52;62.60;;;35.57;;
63499;SDS011;49654;51.142;14.924;2023-03-09T01:29:19;60.87;;;34.00;;
63499;SDS011;49654;51.142;14.924;2023-03-09T01:31:46;57.43;;;33.03;;
63499;SDS011;49654;51.142;14.924;2023-03-09T01:34:13;57.80;;;33.07;;
63499;SDS011;49654;51.142;14.924;2023-03-09T01:36:40;56.33;;;31.47;;
63499;SDS011;49654;51.142;14.924;2023-03-09T01:39:08;60.20;;;33.43;;
63499;SDS011;49654;51.142;14.924;2023-03-09T01:41:35;55.07;;;31.93;;
63499;SDS011;49654;51.142;14.924;2023-03-09T01:44:04;52.10;;;31.00;;
63499;SDS011;49654;51.142;14.924;2023-03-09T01:46:33;48.87;;;28.90;;
63499;SDS011;49654;51.142;14.924;2023-03-09T01:49:06;48.40;;;28.10;;
63499;SDS011;49654;51.142;14.924;2023-03-09T01:51:39;46.43;;;27.57;;
63499;SDS011;49654;51.142;14.924;2023-03-09T01:54:11;50.47;;;28.13;;
63499;SDS011;49654;51.142;14.924;2023-03-09T01:56:41;46.13;;;26.90;;
63499;SDS011;49654;51.142;14.924;2023-03-09T01:59:12;48.93;;;27.23;;
63499;SDS011;49654;51.142;14.924;2023-03-09T02:01:40;43.83;;;25.47;;
63499;SDS011;49654;51.142;14.924;2023-03-09T02:04:09;44.90;;;25.27;;
63499;SDS011;49654;51.142;14.924;2023-03-09T02:06:41;41.27;;;25.10;;
63499;SDS011;49654;51.142;14.924;2023-03-09T02:09:11;39.73;;;24.27;;
63499;SDS011;49654;51.142;14.924;2023-03-09T02:11:43;38.50;;;23.47;;
63499;SDS011;49654;51.142;14.924;2023-03-09T02:14:12;39.73;;;22.97;;
63499;SDS011;49654;51.142;14.924;2023-03-09T02:16:40;40.20;;;23.37;;
63499;SDS011;49654;51.142;14.924;2023-03-09T02:19:09;36.27;;;22.43;;
63499;SDS011;49654;51.142;14.924;2023-03-09T02:21:47;37.60;;;21.67;;
63499;SDS011;49654;51.142;14.924;2023-03-09T02:24:18;35.50;;;21.77;;
63499;SDS011;49654;51.142;14.924;2023-03-09T02:26:50;34.87;;;20.63;;
63499;SDS011;49654;51.142;14.924;2023-03-09T02:29:22;29.47;;;18.97;;
63499;SDS011;49654;51.142;14.924;2023-03-09T02:31:49;29.00;;;18.03;;
63499;SDS011;49654;51.142;14.924;2023-03-09T02:34:17;26.73;;;16.97;;
63499;SDS011;49654;51.142;14.924;2023-03-09T02:36:44;29.37;;;18.17;;
63499;SDS011;49654;51.142;14.924;2023-03-09T02:39:14;26.93;;;16.37;;
63499;SDS011;49654;51.142;14.924;2023-03-09T02:41:45;26.40;;;16.27;;
63499;SDS011;49654;51.142;14.924;2023-03-09T02:44:12;25.63;;;16.40;;
63499;SDS011;49654;51.142;14.924;2023-03-09T02:46:41;25.93;;;15.83;;
63499;SDS011;49654;51.142;14.924;2023-03-09T02:49:08;24.90;;;16.23;;
63499;SDS011;49654;51.142;14.924;2023-03-09T02:51:35;29.20;;;17.40;;
63499;SDS011;49654;51.142;14.924;2023-03-09T02:54:02;24.57;;;15.77;;
63499;SDS011;49654;51.142;14.924;2023-03-09T02:56:29;27.13;;;16.13;;
63499;SDS011;49654;51.142;14.924;2023-03-09T02:58:56;26.57;;;16.17;;
63499;SDS011;49654;51.142;14.924;2023-03-09T03:01:23;25.90;;;16.20;;
63499;SDS011;49654;51.142;14.924;2023-03-09T03:03:51;25.80;;;15.87;;
63499;SDS011;49654;51.142;14.924;2023-03-09T03:06:18;27.43;;;17.20;;
63499;SDS011;49654;51.142;14.924;2023-03-09T03:08:45;25.57;;;16.40;;
63499;SDS011;49654;51.142;14.924;2023-03-09T03:11:12;27.87;;;16.93;;
63499;SDS011;49654;51.142;14.924;2023-03-09T03:13:39;25.27;;;16.73;;
63499;SDS011;49654;51.142;14.924;2023-03-09T03:16:06;26.97;;;17.27;;
63499;SDS011;49654;51.142;14.924;2023-03-09T03:18:33;28.10;;;17.57;;
63499;SDS011;49654;51.142;14.924;2023-03-09T03:21:02;28.57;;;17.90;;
63499;SDS011;49654;51.142;14.924;2023-03-09T03:23:29;31.63;;;19.67;;
63499;SDS011;49654;51.142;14.924;2023-03-09T03:25:56;32.17;;;20.30;;
63499;SDS011;49654;51.142;14.924;2023-03-09T03:28:23;34.30;;;20.93;;
63499;SDS011;49654;51.142;14.924;2023-03-09T03:30:50;33.83;;;20.93;;
63499;SDS011;49654;51.142;14.924;2023-03-09T03:33:18;33.70;;;20.77;;
63499;SDS011;49654;51.142;14.924;2023-03-09T03:35:45;32.00;;;20.43;;
63499;SDS011;49654;51.142;14.924;2023-03-09T03:38:13;33.23;;;21.37;;
63499;SDS011;49654;51.142;14.924;2023-03-09T03:40:40;32.30;;;20.30;;
63499;SDS011;49654;51.142;14.924;2023-03-09T03:43:07;32.58;;;20.35;;
63499;SDS011;49654;51.142;14.924;2023-03-09T03:45:34;31.40;;;21.27;;
63499;SDS011;49654;51.142;14.924;2023-03-09T03:48:01;32.97;;;21.33;;
63499;SDS011;49654;51.142;14.924;2023-03-09T03:50:28;32.17;;;21.53;;
63499;SDS011;49654;51.142;14.924;2023-03-09T03:52:55;34.83;;;21.90;;
63499;SDS011;49654;51.142;14.924;2023-03-09T03:55:23;33.40;;;22.10;;
63499;SDS011;49654;51.142;14.924;2023-03-09T03:57:50;31.83;;;21.37;;
63499;SDS011;49654;51.142;14.924;2023-03-09T04:00:17;31.73;;;21.37;;
63499;SDS011;49654;51.142;14.924;2023-03-09T04:02:45;30.33;;;20.70;;
63499;SDS011;49654;51.142;14.924;2023-03-09T04:05:12;30.37;;;20.13;;
63499;SDS011;49654;51.142;14.924;2023-03-09T04:07:39;30.87;;;19.43;;
63499;SDS011;49654;51.142;14.924;2023-03-09T04:10:06;29.90;;;20.20;;
63499;SDS011;49654;51.142;14.924;2023-03-09T04:12:36;29.77;;;20.03;;
63499;SDS011;49654;51.142;14.924;2023-03-09T04:15:03;28.17;;;18.87;;
63499;SDS011;49654;51.142;14.924;2023-03-09T04:17:31;28.57;;;19.00;;
63499;SDS011;49654;51.142;14.924;2023-03-09T04:19:57;27.87;;;19.30;;
63499;SDS011;49654;51.142;14.924;2023-03-09T04:22:24;25.73;;;17.83;;
63499;SDS011;49654;51.142;14.924;2023-03-09T04:24:52;28.40;;;17.67;;
63499;SDS011;49654;51.142;14.924;2023-03-09T04:27:19;22.77;;;16.40;;
63499;SDS011;49654;51.142;14.924;2023-03-09T04:29:48;23.57;;;15.60;;
63499;SDS011;49654;51.142;14.924;2023-03-09T04:32:15;22.47;;;15.13;;
63499;SDS011;49654;51.142;14.924;2023-03-09T04:34:42;23.23;;;15.40;;
63499;SDS011;49654;51.142;14.924;2023-03-09T04:37:09;20.77;;;13.70;;
63499;SDS011;49654;51.142;14.924;2023-03-09T04:39:37;19.70;;;13.77;;
63499;SDS011;49654;51.142;14.924;2023-03-09T04:42:04;18.77;;;13.90;;
63499;SDS011;49654;51.142;14.924;2023-03-09T04:44:31;20.13;;;14.17;;
63499;SDS011;49654;51.142;14.924;2023-03-09T04:46:59;19.60;;;12.73;;
63499;SDS011;49654;51.142;14.924;2023-03-09T04:49:26;21.50;;;13.70;;
63499;SDS011;49654;51.142;14.924;2023-03-09T04:51:55;18.43;;;13.07;;
63499;SDS011;49654;51.142;14.924;2023-03-09T04:54:22;19.27;;;13.33;;
63499;SDS011;49654;51.142;14.924;2023-03-09T04:56:49;20.53;;;13.57;;
63499;SDS011;49654;51.142;14.924;2023-03-09T04:59:16;18.83;;;12.90;;
63499;SDS011;49654;51.142;14.924;2023-03-09T05:01:43;21.13;;;13.20;;
63499;SDS011;49654;51.142;14.924;2023-03-09T05:04:11;20.63;;;12.57;;
63499;SDS011;49654;51.142;14.924;2023-03-09T05:06:38;17.73;;;12.17;;
63499;SDS011;49654;51.142;14.924;2023-03-09T05:09:05;19.27;;;12.73;;
63499;SDS011;49654;51.142;14.924;2023-03-09T05:11:32;19.00;;;13.07;;
63499;SDS011;49654;51.142;14.924;2023-03-09T05:14:00;27.83;;;17.63;;
63499;SDS011;49654;51.142;14.924;2023-03-09T05:16:27;18.60;;;13.27;;
63499;SDS011;49654;51.142;14.924;2023-03-09T05:18:54;27.43;;;18.90;;
63499;SDS011;49654;51.142;14.924;2023-03-09T05:21:22;35.17;;;27.77;;
63499;SDS011;49654;51.142;14.924;2023-03-09T05:23:49;43.53;;;36.53;;
63499;SDS011;49654;51.142;14.924;2023-03-09T05:26:16;27.77;;;22.83;;
63499;SDS011;49654;51.142;14.924;2023-03-09T05:28:44;19.47;;;15.30;;
63499;SDS011;49654;51.142;14.924;2023-03-09T05:31:11;23.90;;;20.73;;
63499;SDS011;49654;51.142;14.924;2023-03-09T05:33:39;20.70;;;14.17;;
63499;SDS011;49654;51.142;14.924;2023-03-09T05:36:13;16.00;;;11.87;;
63499;SDS011;49654;51.142;14.924;2023-03-09T05:38:43;17.10;;;11.27;;
63499;SDS011;49654;51.142;14.924;2023-03-09T05:41:10;14.07;;;10.30;;
63499;SDS011;49654;51.142;14.924;2023-03-09T05:43:37;13.53;;;10.03;;
63499;SDS011;49654;51.142;14.924;2023-03-09T05:46:07;13.57;;;9.67;;
63499;SDS011;49654;51.142;14.924;2023-03-09T05:48:35;12.90;;;9.17;;
63499;SDS011;49654;51.142;14.924;2023-03-09T05:51:02;12.97;;;9.00;;
63499;SDS011;49654;51.142;14.924;2023-03-09T05:53:30;13.00;;;9.03;;
63499;SDS011;49654;51.142;14.924;2023-03-09T05:55:59;12.33;;;8.90;;
63499;SDS011;49654;51.142;14.924;2023-03-09T05:58:26;11.67;;;8.60;;
63499;SDS011;49654;51.142;14.924;2023-03-09T06:00:53;11.17;;;8.70;;
63499;SDS011;49654;51.142;14.924;2023-03-09T06:03:22;11.00;;;8.67;;
63499;SDS011;49654;51.142;14.924;2023-03-09T06:05:56;13.30;;;8.23;;
63499;SDS011;49654;51.142;14.924;2023-03-09T06:08:24;11.67;;;8.20;;
63499;SDS011;49654;51.142;14.924;2023-03-09T06:10:51;12.47;;;8.00;;
63499;SDS011;49654;51.142;14.924;2023-03-09T06:13:19;12.63;;;8.33;;
63499;SDS011;49654;51.142;14.924;2023-03-09T06:15:46;12.63;;;8.17;;
63499;SDS011;49654;51.142;14.924;2023-03-09T06:18:14;12.43;;;7.97;;
63499;SDS011;49654;51.142;14.924;2023-03-09T06:20:40;10.97;;;8.20;;
63499;SDS011;49654;51.142;14.924;2023-03-09T06:23:07;11.10;;;7.80;;
63499;SDS011;49654;51.142;14.924;2023-03-09T06:25:35;12.37;;;8.50;;
63499;SDS011;49654;51.142;14.924;2023-03-09T06:28:02;12.83;;;8.50;;
63499;SDS011;49654;51.142;14.924;2023-03-09T06:30:31;11.90;;;8.57;;
63499;SDS011;49654;51.142;14.924;2023-03-09T06:32:58;11.13;;;7.90;;
63499;SDS011;49654;51.142;14.924;2023-03-09T06:35:25;17.57;;;13.10;;
63499;SDS011;49654;51.142;14.924;2023-03-09T06:37:52;14.03;;;10.90;;
63499;SDS011;49654;51.142;14.924;2023-03-09T06:40:19;11.73;;;8.70;;
63499;SDS011;49654;51.142;14.924;2023-03-09T06:42:46;11.93;;;8.40;;
63499;SDS011;49654;51.142;14.924;2023-03-09T06:45:13;13.03;;;9.60;;
63499;SDS011;49654;51.142;14.924;2023-03-09T06:47:41;12.93;;;9.37;;
63499;SDS011;49654;51.142;14.924;2023-03-09T06:50:09;12.10;;;8.27;;
63499;SDS011;49654;51.142;14.924;2023-03-09T06:52:36;11.53;;;8.40;;
63499;SDS011;49654;51.142;14.924;2023-03-09T06:55:04;12.13;;;8.07;;
63499;SDS011;49654;51.142;14.924;2023-03-09T06:57:32;11.97;;;7.47;;
63499;SDS011;49654;51.142;14.924;2023-03-09T06:59:59;11.03;;;7.80;;
63499;SDS011;49654;51.142;14.924;2023-03-09T07:02:25;13.27;;;8.50;;
63499;SDS011;49654;51.142;14.924;2023-03-09T07:04:54;12.87;;;8.23;;
63499;SDS011;49654;51.142;14.924;2023-03-09T07:07:21;10.93;;;8.30;;
63499;SDS011;49654;51.142;14.924;2023-03-09T07:09:48;11.37;;;8.20;;
63499;SDS011;49654;51.142;14.924;2023-03-09T07:12:15;11.43;;;8.83;;
63499;SDS011;49654;51.142;14.924;2023-03-09T07:14:41;11.73;;;8.73;;
63499;SDS011;49654;51.142;14.924;2023-03-09T07:17:11;11.83;;;8.43;;
63499;SDS011;49654;51.142;14.924;2023-03-09T07:19:39;11.43;;;8.40;;
63499;SDS011;49654;51.142;14.924;2023-03-09T07:22:08;12.73;;;8.37;;
63499;SDS011;49654;51.142;14.924;2023-03-09T07:24:36;11.27;;;8.23;;
63499;SDS011;49654;51.142;14.924;2023-03-09T07:27:04;12.87;;;9.17;;
63499;SDS011;49654;51.142;14.924;2023-03-09T07:29:32;11.37;;;8.50;;
63499;SDS011;49654;51.142;14.924;2023-03-09T07:32:00;11.53;;;8.37;;
63499;SDS011;49654;51.142;14.924;2023-03-09T07:34:27;11.73;;;9.73;;
63499;SDS011;49654;51.142;14.924;2023-03-09T07:36:54;11.87;;;8.87;;
63499;SDS011;49654;51.142;14.924;2023-03-09T07:39:23;13.20;;;8.80;;
63499;SDS011;49654;51.142;14.924;2023-03-09T07:41:50;11.57;;;8.13;;
63499;SDS011;49654;51.142;14.924;2023-03-09T07:44:17;11.70;;;8.50;;
63499;SDS011;49654;51.142;14.924;2023-03-09T07:46:44;11.90;;;8.73;;
63499;SDS011;49654;51.142;14.924;2023-03-09T07:49:11;12.70;;;8.30;;
63499;SDS011;49654;51.142;14.924;2023-03-09T07:51:38;15.60;;;10.67;;
63499;SDS011;49654;51.142;14.924;2023-03-09T07:54:05;13.97;;;9.40;;
63499;SDS011;49654;51.142;14.924;2023-03-09T07:56:34;13.23;;;9.60;;
63499;SDS011;49654;51.142;14.924;2023-03-09T07:59:01;12.03;;;8.30;;
63499;SDS011;49654;51.142;14.924;2023-03-09T08:01:29;13.83;;;10.03;;
63499;SDS011;49654;51.142;14.924;2023-03-09T08:03:56;22.80;;;15.50;;
63499;SDS011;49654;51.142;14.924;2023-03-09T08:06:23;15.03;;;10.43;;
63499;SDS011;49654;51.142;14.924;2023-03-09T08:08:50;18.00;;;12.37;;
63499;SDS011;49654;51.142;14.924;2023-03-09T08:11:17;19.77;;;13.80;;
63499;SDS011;49654;51.142;14.924;2023-03-09T08:13:46;15.43;;;10.83;;
63499;SDS011;49654;51.142;14.924;2023-03-09T08:16:13;13.57;;;9.20;;
63499;SDS011;49654;51.142;14.924;2023-03-09T08:18:40;11.77;;;8.23;;
63499;SDS011;49654;51.142;14.924;2023-03-09T08:21:08;13.10;;;10.40;;
63499;SDS011;49654;51.142;14.924;2023-03-09T08:23:37;10.63;;;8.53;;
63499;SDS011;49654;51.142;14.924;2023-03-09T08:26:06;13.43;;;10.43;;
63499;SDS011;49654;51.142;14.924;2023-03-09T08:28:34;18.07;;;13.37;;
63499;SDS011;49654;51.142;14.924;2023-03-09T08:31:03;17.33;;;12.27;;
63499;SDS011;49654;51.142;14.924;2023-03-09T08:33:31;14.93;;;10.20;;
63499;SDS011;49654;51.142;14.924;2023-03-09T08:35:58;13.53;;;10.63;;
63499;SDS011;49654;51.142;14.924;2023-03-09T08:38:25;13.73;;;10.67;;
63499;SDS011;49654;51.142;14.924;2023-03-09T08:40:53;14.20;;;10.40;;
63499;SDS011;49654;51.142;14.924;2023-03-09T08:43:20;13.63;;;9.37;;
63499;SDS011;49654;51.142;14.924;2023-03-09T08:45:47;12.87;;;9.50;;
63499;SDS011;49654;51.142;14.924;2023-03-09T08:48:15;12.47;;;9.57;;
63499;SDS011;49654;51.142;14.924;2023-03-09T08:50:42;12.97;;;9.07;;
63499;SDS011;49654;51.142;14.924;2023-03-09T08:53:09;13.50;;;9.20;;
63499;SDS011;49654;51.142;14.924;2023-03-09T08:55:36;11.10;;;8.17;;
63499;SDS011;49654;51.142;14.924;2023-03-09T08:58:03;10.67;;;8.07;;
63499;SDS011;49654;51.142;14.924;2023-03-09T09:00:29;11.70;;;7.57;;
63499;SDS011;49654;51.142;14.924;2023-03-09T09:02:56;11.67;;;7.47;;
63499;SDS011;49654;51.142;14.924;2023-03-09T09:05:24;11.03;;;8.63;;
63499;SDS011;49654;51.142;14.924;2023-03-09T09:07:51;10.97;;;7.40;;
63499;SDS011;49654;51.142;14.924;2023-03-09T09:10:18;10.30;;;8.40;;
63499;SDS011;49654;51.142;14.924;2023-03-09T09:12:45;9.90;;;7.40;;
63499;SDS011;49654;51.142;14.924;2023-03-09T09:15:12;10.77;;;7.30;;
63499;SDS011;49654;51.142;14.924;2023-03-09T09:17:41;10.53;;;7.37;;
63499;SDS011;49654;51.142;14.924;2023-03-09T09:20:09;10.50;;;7.20;;
63499;SDS011;49654;51.142;14.924;2023-03-09T09:22:40;9.63;;;7.33;;
63499;SDS011;49654;51.142;14.924;2023-03-09T09:25:08;9.57;;;7.13;;
63499;SDS011;49654;51.142;14.924;2023-03-09T09:27:35;10.77;;;7.60;;
63499;SDS011;49654;51.142;14.924;2023-03-09T09:30:02;9.30;;;7.33;;
63499;SDS011;49654;51.142;14.924;2023-03-09T09:32:30;11.80;;;8.47;;
63499;SDS011;49654;51.142;14.924;2023-03-09T09:34:58;13.37;;;8.33;;
63499;SDS011;49654;51.142;14.924;2023-03-09T09:37:26;10.15;;;7.60;;
63499;SDS011;49654;51.142;14.924;2023-03-09T09:39:55;9.70;;;7.57;;
63499;SDS011;49654;51.142;14.924;2023-03-09T09:42:25;8.47;;;6.97;;
63499;SDS011;49654;51.142;14.924;2023-03-09T09:44:56;8.77;;;7.30;;
63499;SDS011;49654;51.142;14.924;2023-03-09T09:47:26;10.20;;;8.40;;
63499;SDS011;49654;51.142;14.924;2023-03-09T09:49:56;12.33;;;9.57;;
63499;SDS011;49654;51.142;14.924;2023-03-09T09:52:30;12.40;;;9.77;;
63499;SDS011;49654;51.142;14.924;2023-03-09T09:55:15;15.80;;;9.07;;
63499;SDS011;49654;51.142;14.924;2023-03-09T09:57:46;13.57;;;10.30;;
63499;SDS011;49654;51.142;14.924;2023-03-09T10:00:18;26.53;;;21.30;;
63499;SDS011;49654;51.142;14.924;2023-03-09T10:02:54;18.20;;;13.43;;
63499;SDS011;49654;51.142;14.924;2023-03-09T10:07:58;33.10;;;26.10;;
63499;SDS011;49654;51.142;14.924;2023-03-09T10:10:39;19.10;;;15.37;;
63499;SDS011;49654;51.142;14.924;2023-03-09T10:13:10;12.37;;;9.63;;
63499;SDS011;49654;51.142;14.924;2023-03-09T10:15:40;14.07;;;11.67;;
63499;SDS011;49654;51.142;14.924;2023-03-09T10:18:10;11.43;;;9.23;;
63499;SDS011;49654;51.142;14.924;2023-03-09T10:20:41;11.03;;;8.37;;
63499;SDS011;49654;51.142;14.924;2023-03-09T10:23:14;10.43;;;8.67;;
63499;SDS011;49654;51.142;14.924;2023-03-09T10:25:48;12.27;;;8.80;;
63499;SDS011;49654;51.142;14.924;2023-03-09T10:28:18;11.97;;;8.57;;
63499;SDS011;49654;51.142;14.924;2023-03-09T10:30:48;11.40;;;8.73;;
63499;SDS011;49654;51.142;14.924;2023-03-09T10:33:23;11.53;;;8.83;;
63499;SDS011;49654;51.142;14.924;2023-03-09T10:36:00;12.43;;;8.60;;
63499;SDS011;49654;51.142;14.924;2023-03-09T10:38:32;10.83;;;8.60;;
63499;SDS011;49654;51.142;14.924;2023-03-09T10:41:02;11.27;;;8.90;;
63499;SDS011;49654;51.142;14.924;2023-03-09T10:43:42;11.07;;;9.13;;
63499;SDS011;49654;51.142;14.924;2023-03-09T10:46:11;11.80;;;8.60;;
63499;SDS011;49654;51.142;14.924;2023-03-09T10:48:40;10.60;;;7.87;;
63499;SDS011;49654;51.142;14.924;2023-03-09T10:51:20;10.17;;;8.20;;
63499;SDS011;49654;51.142;14.924;2023-03-09T10:53:51;9.97;;;7.53;;
63499;SDS011;49654;51.142;14.924;2023-03-09T10:56:22;10.43;;;7.60;;
63499;SDS011;49654;51.142;14.924;2023-03-09T11:01:40;9.17;;;7.40;;
63499;SDS011;49654;51.142;14.924;2023-03-09T11:06:56;9.67;;;7.50;;
63499;SDS011;49654;51.142;14.924;2023-03-09T11:09:26;9.43;;;8.13;;
63499;SDS011;49654;51.142;14.924;2023-03-09T11:12:07;8.57;;;6.70;;
63499;SDS011;49654;51.142;14.924;2023-03-09T11:14:42;9.93;;;7.37;;
63499;SDS011;49654;51.142;14.924;2023-03-09T11:17:23;9.73;;;7.73;;
63499;SDS011;49654;51.142;14.924;2023-03-09T11:22:58;9.70;;;7.87;;
63499;SDS011;49654;51.142;14.924;2023-03-09T11:25:30;9.57;;;7.60;;
63499;SDS011;49654;51.142;14.924;2023-03-09T11:28:05;9.83;;;7.37;;
63499;SDS011;49654;51.142;14.924;2023-03-09T11:30:41;10.13;;;7.63;;
63499;SDS011;49654;51.142;14.924;2023-03-09T11:33:09;10.73;;;8.27;;
63499;SDS011;49654;51.142;14.924;2023-03-09T11:35:41;10.17;;;7.67;;
63499;SDS011;49654;51.142;14.924;2023-03-09T11:38:11;9.03;;;7.57;;
63499;SDS011;49654;51.142;14.924;2023-03-09T11:40:40;9.67;;;7.57;;
63499;SDS011;49654;51.142;14.924;2023-03-09T11:43:12;11.17;;;7.63;;
63499;SDS011;49654;51.142;14.924;2023-03-09T11:45:46;11.17;;;9.07;;
63499;SDS011;49654;51.142;14.924;2023-03-09T11:48:15;10.03;;;7.70;;
63499;SDS011;49654;51.142;14.924;2023-03-09T11:50:53;11.80;;;8.00;;
63499;SDS011;49654;51.142;14.924;2023-03-09T11:53:26;11.07;;;8.30;;
63499;SDS011;49654;51.142;14.924;2023-03-09T11:55:58;8.60;;;7.07;;
63499;SDS011;49654;51.142;14.924;2023-03-09T11:58:37;11.93;;;7.47;;
63499;SDS011;49654;51.142;14.924;2023-03-09T12:01:08;9.73;;;7.13;;
63499;SDS011;49654;51.142;14.924;2023-03-09T12:03:45;8.43;;;6.97;;
63499;SDS011;49654;51.142;14.924;2023-03-09T12:06:27;10.40;;;8.10;;
63499;SDS011;49654;51.142;14.924;2023-03-09T12:08:59;11.03;;;8.00;;
63499;SDS011;49654;51.142;14.924;2023-03-09T12:11:30;8.70;;;7.80;;
63499;SDS011;49654;51.142;14.924;2023-03-09T12:14:03;10.00;;;7.38;;
63499;SDS011;49654;51.142;14.924;2023-03-09T12:16:39;8.73;;;7.03;;
63499;SDS011;49654;51.142;14.924;2023-03-09T12:19:12;8.30;;;7.22;;
63499;SDS011;49654;51.142;14.924;2023-03-09T12:21:43;8.77;;;7.40;;
63499;SDS011;49654;51.142;14.924;2023-03-09T12:26:58;11.23;;;7.40;;
63499;SDS011;49654;51.142;14.924;2023-03-09T12:29:30;9.13;;;7.30;;
63499;SDS011;49654;51.142;14.924;2023-03-09T12:32:17;8.10;;;7.00;;
63499;SDS011;49654;51.142;14.924;2023-03-09T12:34:46;9.02;;;7.60;;
63499;SDS011;49654;51.142;14.924;2023-03-09T12:40:34;8.57;;;7.67;;
63499;SDS011;49654;51.142;14.924;2023-03-09T12:49:28;9.63;;;7.72;;
63499;SDS011;49654;51.142;14.924;2023-03-09T12:54:55;9.63;;;7.93;;
63499;SDS011;49654;51.142;14.924;2023-03-09T12:57:25;9.38;;;8.07;;
63499;SDS011;49654;51.142;14.924;2023-03-09T12:59:53;10.70;;;8.40;;
63499;SDS011;49654;51.142;14.924;2023-03-09T13:02:23;9.93;;;8.40;;
63499;SDS011;49654;51.142;14.924;2023-03-09T13:05:11;10.07;;;8.53;;
63499;SDS011;49654;51.142;14.924;2023-03-09T13:07:52;11.27;;;8.67;;
63499;SDS011;49654;51.142;14.924;2023-03-09T13:10:21;10.10;;;8.67;;
63499;SDS011;49654;51.142;14.924;2023-03-09T13:12:54;11.30;;;9.40;;
63499;SDS011;49654;51.142;14.924;2023-03-09T13:15:23;11.50;;;9.57;;
63499;SDS011;49654;51.142;14.924;2023-03-09T13:18:02;9.63;;;8.63;;
63499;SDS011;49654;51.142;14.924;2023-03-09T13:20:53;9.85;;;8.25;;
63499;SDS011;49654;51.142;14.924;2023-03-09T13:23:20;9.00;;;8.05;;
63499;SDS011;49654;51.142;14.924;2023-03-09T13:25:50;10.43;;;8.43;;
63499;SDS011;49654;51.142;14.924;2023-03-09T13:28:30;9.37;;;8.20;;
63499;SDS011;49654;51.142;14.924;2023-03-09T13:31:06;10.07;;;8.27;;
63499;SDS011;49654;51.142;14.924;2023-03-09T13:33:44;9.20;;;8.20;;
63499;SDS011;49654;51.142;14.924;2023-03-09T13:36:15;6.57;;;5.65;;
63499;SDS011;49654;51.142;14.924;2023-03-09T13:38:46;7.70;;;6.10;;
63499;SDS011;49654;51.142;14.924;2023-03-09T13:41:17;7.05;;;6.35;;
63499;SDS011;49654;51.142;14.924;2023-03-09T13:43:47;5.73;;;5.00;;
63499;SDS011;49654;51.142;14.924;2023-03-09T13:46:17;5.77;;;4.97;;
63499;SDS011;49654;51.142;14.924;2023-03-09T13:48:49;5.68;;;4.78;;
63499;SDS011;49654;51.142;14.924;2023-03-09T13:51:24;6.07;;;5.10;;
63499;SDS011;49654;51.142;14.924;2023-03-09T13:53:53;5.65;;;4.82;;
63499;SDS011;49654;51.142;14.924;2023-03-09T13:56:20;5.77;;;4.83;;
63499;SDS011;49654;51.142;14.924;2023-03-09T13:58:47;6.67;;;5.43;;
63499;SDS011;49654;51.142;14.924;2023-03-09T14:01:19;4.67;;;4.00;;
63499;SDS011;49654;51.142;14.924;2023-03-09T14:03:48;5.50;;;4.23;;
63499;SDS011;49654;51.142;14.924;2023-03-09T14:06:20;4.63;;;4.03;;
63499;SDS011;49654;51.142;14.924;2023-03-09T14:08:55;4.87;;;4.37;;
63499;SDS011;49654;51.142;14.924;2023-03-09T14:11:29;6.47;;;4.93;;
63499;SDS011;49654;51.142;14.924;2023-03-09T14:13:57;5.57;;;4.50;;
63499;SDS011;49654;51.142;14.924;2023-03-09T14:16:30;4.30;;;3.90;;
63499;SDS011;49654;51.142;14.924;2023-03-09T14:18:58;5.90;;;4.90;;
63499;SDS011;49654;51.142;14.924;2023-03-09T14:21:27;4.90;;;4.40;;
63499;SDS011;49654;51.142;14.924;2023-03-09T14:24:09;5.60;;;4.95;;
63499;SDS011;49654;51.142;14.924;2023-03-09T14:26:37;5.50;;;4.70;;
63499;SDS011;49654;51.142;14.924;2023-03-09T14:29:05;5.30;;;4.80;;
63499;SDS011;49654;51.142;14.924;2023-03-09T14:31:45;6.22;;;4.60;;
63499;SDS011;49654;51.142;14.924;2023-03-09T14:34:24;6.20;;;5.03;;
63499;SDS011;49654;51.142;14.924;2023-03-09T14:36:54;4.97;;;4.20;;
63499;SDS011;49654;51.142;14.924;2023-03-09T14:39:24;4.97;;;4.17;;
63499;SDS011;49654;51.142;14.924;2023-03-09T14:42:04;5.82;;;4.28;;
63499;SDS011;49654;51.142;14.924;2023-03-09T14:44:39;4.20;;;3.80;;
63499;SDS011;49654;51.142;14.924;2023-03-09T14:47:11;3.80;;;3.40;;
63499;SDS011;49654;51.142;14.924;2023-03-09T14:49:40;5.30;;;3.65;;
63499;SDS011;49654;51.142;14.924;2023-03-09T14:52:10;3.78;;;2.83;;
63499;SDS011;49654;51.142;14.924;2023-03-09T14:54:38;3.43;;;2.87;;
63499;SDS011;49654;51.142;14.924;2023-03-09T14:57:05;4.73;;;3.80;;